createdAt,value
2019-06-26T00:01:10.162Z,26.20
2019-06-26T00:03:40.629Z,26.20
2019-06-26T00:06:10.678Z,26.20
2019-06-26T00:08:41.052Z,26.20
2019-06-26T00:11:11.094Z,26.20
2019-06-26T00:13:41.156Z,26.10
2019-06-26T00:16:11.235Z,26.10
2019-06-26T00:18:41.321Z,26.10
2019-06-26T00:21:11.458Z,26.10
2019-06-26T00:23:41.466Z,26.10
2019-06-26T00:26:11.585Z,26.10
2019-06-26T00:28:42.004Z,26.10
2019-06-26T00:31:12.059Z,26.10
2019-06-26T00:33:42.292Z,26.00
2019-06-26T00:36:12.339Z,26.00
2019-06-26T00:38:43.586Z,26.00
2019-06-26T00:41:13.589Z,26.00
2019-06-26T00:43:44.221Z,26.00
2019-06-26T00:46:14.286Z,26.00
2019-06-26T00:48:44.357Z,26.00
2019-06-26T00:51:14.852Z,25.90
2019-06-26T00:53:45.187Z,25.90
2019-06-26T00:56:15.234Z,25.90
2019-06-26T00:58:45.283Z,25.90
2019-06-26T01:01:16.071Z,25.90
2019-06-26T01:03:47.127Z,25.80
2019-06-26T01:06:35.194Z,25.80
2019-06-26T01:09:06.780Z,25.80
2019-06-26T01:11:36.843Z,25.70
2019-06-26T01:14:06.957Z,25.70
2019-06-26T01:16:37.341Z,25.70
2019-06-26T01:19:07.337Z,25.70
2019-06-26T01:21:37.424Z,25.70
2019-06-26T01:24:07.580Z,25.70
2019-06-26T01:26:37.594Z,25.70
2019-06-26T01:29:07.736Z,25.70
2019-06-26T01:31:38.108Z,25.70
2019-06-26T01:34:08.145Z,25.70
2019-06-26T01:36:38.237Z,25.60
2019-06-26T01:39:08.577Z,25.60
2019-06-26T01:41:38.593Z,25.60
2019-06-26T01:44:14.847Z,25.60
2019-06-26T01:46:40.429Z,25.50
2019-06-26T01:49:10.445Z,25.50
2019-06-26T01:51:40.819Z,25.50
2019-06-26T01:54:10.837Z,25.50
2019-06-26T01:56:40.887Z,25.50
2019-06-26T01:59:11.251Z,25.50
2019-06-26T02:01:41.305Z,25.40
2019-06-26T02:04:11.337Z,25.40
2019-06-26T02:06:41.361Z,25.40
2019-06-26T02:09:11.417Z,25.40
2019-06-26T02:11:41.418Z,25.40
2019-06-26T02:14:11.483Z,25.40
2019-06-26T02:16:41.500Z,25.40
2019-06-26T02:19:13.054Z,25.40
2019-06-26T02:21:44.075Z,25.40
2019-06-26T02:24:14.109Z,25.30
2019-06-26T02:26:44.133Z,25.30
2019-06-26T02:29:14.163Z,25.30
2019-06-26T02:31:44.189Z,25.30
2019-06-26T02:34:14.591Z,25.30
2019-06-26T02:36:44.601Z,25.30
2019-06-26T02:39:14.658Z,25.20
2019-06-26T02:41:44.700Z,25.20
2019-06-26T02:44:14.735Z,25.20
2019-06-26T02:46:44.769Z,25.20
2019-06-26T02:49:14.881Z,25.20
2019-06-26T02:51:46.000Z,25.20
2019-06-26T02:54:16.041Z,25.20
2019-06-26T02:56:46.048Z,25.20
2019-06-26T02:59:16.483Z,25.20
2019-06-26T03:01:46.509Z,25.10
2019-06-26T03:04:16.568Z,25.10
2019-06-26T03:06:46.615Z,25.10
2019-06-26T03:09:16.744Z,25.10
2019-06-26T03:11:46.780Z,25.10
2019-06-26T03:14:16.799Z,25.10
2019-06-26T03:16:46.811Z,25.00
2019-06-26T03:19:16.839Z,25.00
2019-06-26T03:21:46.855Z,25.00
2019-06-26T03:24:16.901Z,25.00
2019-06-26T03:26:46.958Z,25.00
2019-06-26T03:29:17.047Z,25.00
2019-06-26T03:31:47.194Z,24.90
2019-06-26T03:34:17.655Z,24.90
2019-06-26T03:36:47.786Z,24.90
2019-06-26T03:39:20.160Z,24.90
2019-06-26T03:41:50.168Z,24.90
2019-06-26T03:44:20.191Z,24.90
2019-06-26T03:46:50.601Z,24.90
2019-06-26T03:49:21.019Z,24.90
2019-06-26T03:51:51.043Z,24.90
2019-06-26T03:54:21.107Z,24.90
2019-06-26T03:56:51.141Z,24.80
2019-06-26T03:59:21.166Z,24.80
2019-06-26T04:01:51.523Z,24.80
2019-06-26T04:04:21.583Z,24.80
2019-06-26T04:06:51.617Z,24.80
2019-06-26T04:09:21.696Z,24.80
2019-06-26T04:11:51.760Z,24.80
2019-06-26T04:14:21.758Z,24.80
2019-06-26T04:16:51.800Z,24.80
2019-06-26T04:19:23.279Z,24.80
2019-06-26T04:21:53.385Z,24.80
2019-06-26T04:24:23.495Z,24.80
2019-06-26T04:26:53.543Z,24.80
2019-06-26T04:29:23.880Z,24.80
2019-06-26T04:31:53.954Z,24.70
2019-06-26T04:34:24.493Z,24.70
2019-06-26T04:36:54.566Z,24.70
2019-06-26T04:39:24.741Z,24.70
2019-06-26T04:41:54.795Z,24.70
2019-06-26T04:44:28.299Z,24.70
2019-06-26T04:46:58.333Z,24.70
2019-06-26T04:49:28.396Z,24.70
2019-06-26T04:51:58.703Z,24.80
2019-06-26T04:54:28.766Z,24.70
2019-06-26T04:56:59.133Z,24.80
2019-06-26T04:59:29.560Z,24.70
2019-06-26T05:01:59.826Z,24.70
2019-06-26T05:04:29.844Z,24.80
2019-06-26T05:07:00.663Z,24.80
2019-06-26T05:09:31.172Z,24.80
2019-06-26T05:12:01.192Z,24.80
2019-06-26T05:14:32.650Z,24.80
2019-06-26T05:17:02.804Z,24.80
2019-06-26T05:19:32.894Z,24.90
2019-06-26T05:22:02.924Z,24.90
2019-06-26T05:24:33.042Z,24.90
2019-06-26T05:27:03.758Z,24.90
2019-06-26T05:29:33.806Z,24.90
2019-06-26T05:32:04.197Z,24.90
2019-06-26T05:34:34.211Z,24.90
2019-06-26T05:37:05.548Z,24.90
2019-06-26T05:39:35.685Z,24.90
2019-06-26T05:42:06.891Z,24.90
2019-06-26T05:44:38.066Z,25.00
2019-06-26T05:47:08.491Z,25.00
2019-06-26T05:49:38.520Z,25.00
2019-06-26T05:52:08.640Z,25.10
2019-06-26T05:54:38.734Z,25.10
2019-06-26T05:57:08.748Z,25.10
2019-06-26T05:59:38.799Z,25.10
2019-06-26T06:02:09.037Z,25.10
2019-06-26T06:04:39.120Z,25.10
2019-06-26T06:07:09.154Z,25.10
2019-06-26T06:09:39.171Z,25.20
2019-06-26T06:12:09.602Z,25.30
2019-06-26T06:14:39.585Z,25.30
2019-06-26T06:17:09.648Z,25.30
2019-06-26T06:19:39.679Z,25.30
2019-06-26T06:22:10.868Z,25.40
2019-06-26T06:24:41.926Z,25.40
2019-06-26T06:27:11.946Z,25.40
2019-06-26T06:29:41.994Z,25.50
2019-06-26T06:32:12.011Z,25.50
2019-06-26T06:34:42.411Z,25.50
2019-06-26T06:37:12.494Z,25.50
2019-06-26T06:39:42.826Z,25.50
2019-06-26T06:42:12.876Z,25.60
2019-06-26T06:44:44.713Z,25.60
2019-06-26T06:47:14.938Z,25.70
2019-06-26T06:49:44.987Z,25.70
2019-06-26T06:52:16.764Z,25.60
2019-06-26T06:54:46.849Z,25.60
2019-06-26T06:57:18.476Z,25.60
2019-06-26T06:59:48.532Z,25.60
2019-06-26T07:02:18.543Z,25.70
2019-06-26T07:04:48.589Z,25.70
2019-06-26T07:07:18.794Z,25.70
2019-06-26T07:09:48.943Z,25.70
2019-06-26T07:12:20.927Z,25.70
2019-06-26T07:14:51.073Z,25.80
2019-06-26T07:17:21.667Z,25.80
2019-06-26T07:19:52.608Z,25.80
2019-06-26T07:22:23.043Z,25.80
2019-06-26T07:24:53.479Z,25.90
2019-06-26T07:27:23.544Z,25.90
2019-06-26T07:29:54.025Z,25.90
2019-06-26T07:32:24.104Z,25.90
2019-06-26T07:34:54.140Z,26.00
2019-06-26T07:37:24.144Z,26.00
2019-06-26T07:39:58.757Z,26.00
2019-06-26T07:42:25.912Z,26.10
2019-06-26T07:44:56.289Z,26.10
2019-06-26T07:47:42.686Z,26.10
2019-06-26T07:50:01.969Z,26.10
2019-06-26T07:52:32.119Z,26.10
2019-06-26T07:55:02.290Z,26.20
2019-06-26T07:57:33.670Z,26.20
2019-06-26T08:00:04.466Z,26.30
2019-06-26T08:02:35.941Z,26.30
2019-06-26T08:05:16.500Z,26.30
2019-06-26T08:07:46.522Z,26.30
2019-06-26T08:10:16.744Z,26.40
2019-06-26T08:12:46.763Z,26.40
2019-06-26T08:15:18.251Z,26.50
2019-06-26T08:17:59.825Z,26.50
2019-06-26T08:20:20.371Z,26.50
2019-06-26T08:22:50.439Z,26.50
2019-06-26T08:25:20.459Z,26.60
2019-06-26T08:27:50.927Z,26.60
2019-06-26T08:30:21.166Z,26.60
2019-06-26T08:32:51.552Z,26.70
2019-06-26T08:35:22.448Z,26.70
2019-06-26T08:38:09.057Z,26.80
2019-06-26T08:40:24.597Z,26.80
2019-06-26T08:42:54.827Z,26.80
2019-06-26T08:45:24.945Z,26.80
2019-06-26T08:47:54.943Z,26.90
2019-06-26T08:50:26.025Z,27.00
2019-06-26T08:52:56.111Z,27.00
2019-06-26T08:55:26.234Z,27.10
2019-06-26T08:57:56.659Z,27.10
2019-06-26T09:00:26.699Z,27.10
2019-06-26T09:02:56.777Z,27.20
2019-06-26T09:05:27.137Z,27.20
2019-06-26T09:07:57.472Z,27.20
2019-06-26T09:10:27.566Z,27.30
2019-06-26T09:12:57.568Z,27.30
2019-06-26T09:15:27.614Z,27.40
2019-06-26T09:17:57.642Z,27.40
2019-06-26T09:20:37.173Z,27.40
2019-06-26T09:23:07.585Z,27.40
2019-06-26T09:25:38.115Z,27.40
2019-06-26T09:28:08.173Z,27.50
2019-06-26T09:30:38.208Z,27.50
2019-06-26T09:33:08.584Z,27.60
2019-06-26T09:35:39.017Z,27.60
2019-06-26T09:38:10.153Z,27.60
2019-06-26T09:40:40.877Z,27.70
2019-06-26T09:43:10.985Z,27.70
2019-06-26T09:45:41.108Z,27.70
2019-06-26T09:48:11.106Z,27.80
2019-06-26T09:50:41.114Z,27.80
2019-06-26T09:53:11.592Z,27.80
2019-06-26T09:55:41.977Z,27.80
2019-06-26T09:58:13.369Z,27.90
2019-06-26T10:00:44.186Z,27.90
2019-06-26T10:03:14.213Z,28.00
2019-06-26T10:05:44.235Z,28.00
2019-06-26T10:08:14.344Z,28.00
2019-06-26T10:10:44.398Z,28.10
2019-06-26T10:13:14.427Z,28.10
2019-06-26T10:15:44.445Z,28.10
2019-06-26T10:18:14.486Z,28.10
2019-06-26T10:20:44.541Z,28.10
2019-06-26T10:23:14.965Z,28.20
2019-06-26T10:25:45.014Z,28.20
2019-06-26T10:28:15.055Z,28.20
2019-06-26T10:30:45.096Z,28.20
2019-06-26T10:33:15.134Z,28.30
2019-06-26T10:35:45.641Z,28.30
2019-06-26T10:38:15.643Z,28.40
2019-06-26T10:40:46.491Z,28.40
2019-06-26T10:43:16.490Z,28.40
2019-06-26T10:45:47.859Z,28.50
2019-06-26T10:48:18.389Z,28.50
2019-06-26T10:50:56.917Z,28.50
2019-06-26T10:53:20.121Z,28.60
2019-06-26T10:55:50.580Z,28.60
2019-06-26T10:58:21.041Z,28.60
2019-06-26T11:00:51.169Z,28.70
2019-06-26T11:03:21.268Z,28.70
2019-06-26T11:05:51.372Z,28.70
2019-06-26T11:08:22.210Z,28.70
2019-06-26T11:10:52.250Z,28.70
2019-06-26T11:13:22.599Z,28.70
2019-06-26T11:15:52.715Z,28.80
2019-06-26T11:18:22.738Z,28.80
2019-06-26T11:20:52.793Z,28.80
2019-06-26T11:23:22.814Z,28.80
2019-06-26T11:25:52.854Z,28.80
2019-06-26T11:28:22.897Z,28.90
2019-06-26T11:30:53.856Z,29.00
2019-06-26T11:33:24.235Z,29.00
2019-06-26T11:35:54.270Z,29.00
2019-06-26T11:38:24.310Z,29.00
2019-06-26T11:40:54.612Z,29.00
2019-06-26T11:43:24.679Z,29.00
2019-06-26T11:45:55.034Z,29.10
2019-06-26T11:48:25.148Z,29.10
2019-06-26T11:50:55.256Z,29.10
2019-06-26T11:53:25.277Z,29.20
2019-06-26T11:55:55.322Z,29.20
2019-06-26T11:58:25.624Z,29.20
2019-06-26T12:00:55.790Z,29.20
2019-06-26T12:03:26.462Z,29.20
2019-06-26T12:06:11.852Z,29.20
2019-06-26T12:08:29.429Z,29.20
2019-06-26T12:10:59.704Z,29.30
2019-06-26T12:13:33.306Z,29.20
2019-06-26T12:16:02.069Z,29.20
2019-06-26T12:18:32.699Z,29.30
2019-06-26T12:21:02.722Z,29.30
2019-06-26T12:23:32.741Z,29.30
2019-06-26T12:26:02.742Z,29.30
2019-06-26T12:28:32.783Z,29.40
2019-06-26T12:31:03.213Z,29.40
2019-06-26T12:33:33.322Z,29.40
2019-06-26T12:36:03.443Z,29.40
2019-06-26T12:38:33.801Z,29.40
2019-06-26T12:41:04.201Z,29.50
2019-06-26T12:43:34.216Z,29.50
2019-06-26T12:46:04.942Z,29.40
2019-06-26T12:48:34.990Z,29.50
2019-06-26T12:51:05.004Z,29.50
2019-06-26T12:53:35.020Z,29.60
2019-06-26T12:56:05.065Z,29.60
2019-06-26T12:58:35.092Z,29.60
2019-06-26T13:01:05.125Z,29.60
2019-06-26T13:03:35.183Z,29.70
2019-06-26T13:06:05.559Z,29.70
2019-06-26T13:08:35.568Z,29.70
2019-06-26T13:11:05.576Z,29.70
2019-06-26T13:13:35.608Z,29.70
2019-06-26T13:16:05.685Z,29.80
2019-06-26T13:18:35.959Z,29.80
2019-06-26T13:21:06.086Z,29.80
2019-06-26T13:23:36.233Z,29.80
2019-06-26T13:26:06.339Z,29.80
2019-06-26T13:28:36.377Z,29.80
2019-06-26T13:31:06.386Z,29.90
2019-06-26T13:33:36.506Z,29.90
2019-06-26T13:36:06.730Z,29.90
2019-06-26T13:38:36.778Z,29.90
2019-06-26T13:41:06.812Z,29.90
2019-06-26T13:43:36.834Z,30.00
2019-06-26T13:46:07.178Z,30.00
2019-06-26T13:48:37.655Z,29.90
2019-06-26T13:51:09.886Z,30.00
2019-06-26T13:53:39.471Z,29.90
2019-06-26T13:56:09.723Z,30.00
2019-06-26T13:58:39.750Z,30.00
2019-06-26T14:01:09.799Z,30.10
2019-06-26T14:03:39.840Z,30.10
2019-06-26T14:06:09.923Z,30.10
2019-06-26T14:08:39.937Z,30.20
2019-06-26T14:11:10.271Z,30.20
2019-06-26T14:13:41.874Z,30.20
2019-06-26T14:16:12.470Z,30.30
2019-06-26T14:18:43.133Z,30.30
2019-06-26T14:21:25.026Z,30.30
2019-06-26T14:23:44.927Z,30.40
2019-06-26T14:26:15.640Z,30.40
2019-06-26T14:28:46.073Z,30.40
2019-06-26T14:31:16.796Z,30.30
2019-06-26T14:33:46.847Z,30.40
2019-06-26T14:36:16.888Z,30.40
2019-06-26T14:38:47.988Z,30.40
2019-06-26T14:41:19.078Z,30.40
2019-06-26T14:43:49.085Z,30.40
2019-06-26T14:46:19.109Z,30.50
2019-06-26T14:48:49.886Z,30.40
2019-06-26T14:51:19.945Z,30.40
2019-06-26T14:53:50.079Z,30.50
2019-06-26T14:56:20.757Z,30.50
2019-06-26T14:58:50.811Z,30.60
2019-06-26T15:01:20.845Z,30.70
2019-06-26T15:03:50.895Z,30.60
2019-06-26T15:06:20.911Z,30.60
2019-06-26T15:08:51.774Z,30.60
2019-06-26T15:11:22.090Z,30.60
2019-06-26T15:13:52.183Z,30.60
2019-06-26T15:16:22.193Z,30.60
2019-06-26T15:18:52.856Z,30.60
2019-06-26T15:21:23.266Z,30.60
2019-06-26T15:23:53.308Z,30.60
2019-06-26T15:26:23.331Z,30.60
2019-06-26T15:28:54.051Z,30.60
2019-06-26T15:31:24.092Z,30.60
2019-06-26T15:33:55.425Z,30.50
2019-06-26T15:36:25.481Z,30.60
2019-06-26T15:38:59.029Z,30.60
2019-06-26T15:41:27.610Z,30.60
2019-06-26T15:43:57.727Z,30.50
2019-06-26T15:46:27.775Z,30.60
2019-06-26T15:48:57.875Z,30.60
2019-06-26T15:51:27.929Z,30.60
2019-06-26T15:54:00.056Z,30.60
2019-06-26T15:56:30.031Z,30.60
2019-06-26T15:59:00.153Z,30.60
2019-06-26T16:01:30.507Z,30.60
2019-06-26T16:04:00.651Z,30.60
2019-06-26T16:06:31.046Z,30.60
2019-06-26T16:09:01.109Z,30.60
2019-06-26T16:11:32.005Z,30.60
2019-06-26T16:14:02.511Z,30.50
2019-06-26T16:16:34.415Z,30.60
2019-06-26T16:19:09.500Z,30.50
2019-06-26T16:21:39.860Z,30.60
2019-06-26T16:24:11.084Z,30.60
2019-06-26T16:26:41.521Z,30.50
2019-06-26T16:29:11.561Z,30.50
2019-06-26T16:31:42.016Z,30.50
2019-06-26T16:34:12.460Z,30.50
2019-06-26T16:36:42.501Z,30.50
2019-06-26T16:39:12.538Z,30.50
2019-06-26T16:41:42.578Z,30.50
2019-06-26T16:44:12.624Z,30.50
2019-06-26T16:46:42.635Z,30.50
2019-06-26T16:49:12.677Z,30.50
2019-06-26T16:51:43.136Z,30.50
2019-06-26T16:54:13.189Z,30.50
2019-06-26T16:56:43.219Z,30.50
2019-06-26T16:59:13.267Z,30.50
2019-06-26T17:01:43.653Z,30.50
2019-06-26T17:04:15.461Z,30.50
2019-06-26T17:06:45.894Z,30.50
2019-06-26T17:09:16.816Z,30.50
2019-06-26T17:11:46.875Z,30.50
2019-06-26T17:14:16.910Z,30.50
2019-06-26T17:16:46.983Z,30.50
2019-06-26T17:19:17.514Z,30.50
2019-06-26T17:21:47.918Z,30.50
2019-06-26T17:24:18.379Z,30.50
2019-06-26T17:26:48.886Z,30.50
2019-06-26T17:29:21.505Z,30.50
2019-06-26T17:31:51.675Z,30.50
2019-06-26T17:34:21.765Z,30.50
2019-06-26T17:36:51.790Z,30.50
2019-06-26T17:39:21.866Z,30.30
2019-06-26T17:41:51.967Z,30.50
2019-06-26T17:44:22.218Z,30.50
2019-06-26T17:46:52.515Z,30.50
2019-06-26T17:49:24.273Z,30.50
2019-06-26T17:51:54.645Z,30.40
2019-06-26T17:54:24.882Z,30.50
2019-06-26T17:56:54.994Z,30.50
2019-06-26T17:59:25.384Z,30.50
2019-06-26T18:01:55.864Z,30.50
2019-06-26T18:05:26.745Z,30.50
2019-06-26T18:07:57.260Z,30.50
2019-06-26T18:10:27.288Z,30.40
2019-06-26T18:12:57.702Z,30.40
2019-06-26T18:15:28.070Z,30.40
2019-06-26T18:17:58.154Z,30.40
2019-06-26T18:20:28.374Z,30.40
2019-06-26T18:23:06.899Z,30.50
2019-06-26T18:25:30.806Z,30.50
2019-06-26T18:28:06.830Z,30.50
2019-06-26T18:30:37.166Z,30.50
2019-06-26T18:33:07.202Z,30.50
2019-06-26T18:35:37.433Z,30.50
2019-06-26T18:38:07.602Z,30.50
2019-06-26T18:40:38.590Z,30.40
2019-06-26T18:43:08.652Z,30.40
2019-06-26T18:45:38.818Z,30.40
2019-06-26T18:48:10.804Z,30.40
2019-06-26T18:50:41.108Z,30.40
2019-06-26T18:53:11.130Z,30.30
2019-06-26T18:55:41.232Z,30.30
2019-06-26T18:58:12.400Z,30.30
2019-06-26T19:00:42.869Z,30.30
2019-06-26T19:03:12.943Z,30.30
2019-06-26T19:05:43.329Z,30.30
2019-06-26T19:08:13.649Z,30.20
2019-06-26T19:10:44.130Z,30.20
2019-06-26T19:13:14.680Z,30.20
2019-06-26T19:15:44.986Z,30.20
2019-06-26T19:18:15.464Z,30.20
2019-06-26T19:20:46.942Z,30.10
2019-06-26T19:23:17.056Z,30.10
2019-06-26T19:25:47.108Z,30.10
2019-06-26T19:28:17.468Z,30.00
2019-06-26T19:30:47.778Z,30.00
2019-06-26T19:33:17.868Z,30.00
2019-06-26T19:35:48.186Z,30.00
2019-06-26T19:38:18.329Z,29.90
2019-06-26T19:40:48.643Z,29.90
2019-06-26T19:43:18.793Z,29.90
2019-06-26T19:45:49.242Z,29.90
2019-06-26T19:48:19.347Z,29.90
2019-06-26T19:50:49.496Z,29.80
2019-06-26T19:53:19.548Z,29.90
2019-06-26T19:55:49.943Z,29.80
2019-06-26T19:58:21.550Z,29.80
2019-06-26T20:00:51.826Z,29.80
2019-06-26T20:03:22.195Z,29.80
2019-06-26T20:05:52.578Z,29.80
2019-06-26T20:08:22.655Z,29.80
2019-06-26T20:10:52.977Z,29.70
2019-06-26T20:13:23.069Z,29.70
2019-06-26T20:15:53.092Z,29.70
2019-06-26T20:18:23.365Z,29.70
2019-06-26T20:20:53.540Z,29.70
2019-06-26T20:23:24.245Z,29.60
2019-06-26T20:25:54.284Z,29.60
2019-06-26T20:28:25.323Z,29.60
2019-06-26T20:30:55.503Z,29.60
2019-06-26T20:33:25.591Z,29.60
2019-06-26T20:35:55.706Z,29.60
2019-06-26T20:38:26.380Z,29.50
2019-06-26T20:40:56.682Z,29.50
2019-06-26T20:43:26.748Z,29.50
2019-06-26T20:45:57.213Z,29.50
2019-06-26T20:48:27.324Z,29.50
2019-06-26T20:50:58.421Z,29.50
2019-06-26T20:53:29.788Z,29.40
2019-06-26T20:55:59.831Z,29.40
2019-06-26T20:58:30.992Z,29.40
2019-06-26T21:01:01.112Z,29.40
2019-06-26T21:03:31.135Z,29.40
2019-06-26T21:06:01.559Z,29.30
2019-06-26T21:08:31.602Z,29.30
2019-06-26T21:11:01.960Z,29.30
2019-06-26T21:13:32.293Z,29.30
2019-06-26T21:16:02.312Z,29.30
2019-06-26T21:18:32.323Z,29.20
2019-06-26T21:21:02.366Z,29.20
2019-06-26T21:23:32.911Z,29.20
2019-06-26T21:26:02.970Z,29.20
2019-06-26T21:28:32.986Z,29.20
2019-06-26T21:31:03.045Z,29.10
2019-06-26T21:33:33.079Z,29.10
2019-06-26T21:36:03.513Z,29.10
2019-06-26T21:38:34.615Z,29.10
2019-06-26T21:41:05.065Z,29.10
2019-06-26T21:43:35.468Z,29.00
2019-06-26T21:46:05.928Z,29.00
2019-06-26T21:48:36.350Z,29.00
2019-06-26T21:51:06.403Z,29.00
2019-06-26T21:53:37.317Z,29.00
2019-06-26T21:56:25.511Z,28.90
2019-06-26T21:59:13.759Z,28.90
2019-06-26T22:02:01.600Z,28.90
2019-06-26T22:04:49.757Z,28.80
2019-06-26T22:07:33.331Z,28.80
2019-06-26T22:10:21.293Z,28.80
2019-06-26T22:12:51.333Z,28.70
2019-06-26T22:15:21.588Z,28.80
2019-06-26T22:17:51.704Z,28.80
2019-06-26T22:20:22.259Z,28.80
2019-06-26T22:22:52.611Z,28.80
2019-06-26T22:25:22.615Z,28.70
2019-06-26T22:27:52.657Z,28.80
2019-06-26T22:30:23.584Z,28.70
2019-06-26T22:32:53.686Z,28.70
2019-06-26T22:35:23.946Z,28.70
2019-06-26T22:37:53.965Z,28.70
2019-06-26T22:40:24.687Z,28.70
2019-06-26T22:42:54.722Z,28.70
2019-06-26T22:45:24.731Z,28.60
2019-06-26T22:47:55.132Z,28.60
2019-06-26T22:50:25.430Z,28.60
2019-06-26T22:52:55.456Z,28.60
2019-06-26T22:55:25.809Z,28.50
2019-06-26T22:57:55.820Z,28.50
2019-06-26T23:00:25.962Z,28.50
2019-06-26T23:02:55.998Z,28.50
2019-06-26T23:05:26.788Z,28.50
2019-06-26T23:07:57.228Z,28.50
2019-06-26T23:10:27.245Z,28.40
2019-06-26T23:12:57.252Z,28.50
2019-06-26T23:15:27.305Z,28.40
2019-06-26T23:17:57.393Z,28.40
2019-06-26T23:20:27.723Z,28.40
2019-06-26T23:22:57.765Z,28.40
2019-06-26T23:25:27.797Z,28.40
2019-06-26T23:27:58.008Z,28.40
2019-06-26T23:30:28.390Z,28.40
2019-06-26T23:32:58.456Z,28.30
2019-06-26T23:35:28.521Z,28.30
2019-06-26T23:37:58.593Z,28.30
2019-06-26T23:40:38.695Z,28.30
2019-06-26T23:43:08.730Z,28.20
2019-06-26T23:45:39.143Z,28.20
2019-06-26T23:48:09.183Z,28.20
2019-06-26T23:50:39.214Z,28.20
2019-06-26T23:53:09.349Z,28.20
2019-06-26T23:55:39.719Z,28.20
2019-06-26T23:58:09.969Z,28.10
